Time;durP1;ratioP1;P1;durP2;ratioP2;P2;SDS_P1;SDS_P2;PMS_P1;PMS_P2;Temp;Humidity;BMP_temperature;BMP_pressure;BME280_temperature;BME280_humidity;BME280_pressure;Samples;Min_cycle;Max_cycle;Signal;HPM_P1;HPM_P2
2022/12/23 00:00:18;;;;;;;3.22;1.10;;;;;;;;;;5031289;28;20389;-76
2022/12/23 00:02:44;;;;;;;3.72;1.45;;;;;;;;;;5035102;28;20040;-76
2022/12/23 00:05:10;;;;;;;5.68;2.35;;;;;;;;;;5042380;28;20045;-76
2022/12/23 00:07:36;;;;;;;4.80;1.20;;;;;;;;;;5036237;28;20025;-76
2022/12/23 00:10:02;;;;;;;6.05;1.23;;;;;;;;;;5037339;28;20079;-77
2022/12/23 00:15:13;;;;;;;2.85;0.93;;;;;;;;;;5049722;28;20102;-77
2022/12/23 00:17:43;;;;;;;3.17;0.80;;;;;;;;;;5039244;28;20037;-77
2022/12/23 00:20:10;;;;;;;6.63;3.00;;;;;;;;;;5035249;28;20079;-76
2022/12/23 00:25:39;;;;;;;2.42;0.95;;;;;;;;;;5039034;28;20072;-76
2022/12/23 00:28:12;;;;;;;4.07;0.90;;;;;;;;;;5044210;28;20021;-76
2022/12/23 00:30:45;;;;;;;3.42;0.70;;;;;;;;;;5039266;28;20040;-77
2022/12/23 00:33:11;;;;;;;3.33;1.13;;;;;;;;;;5046829;28;20475;-76
2022/12/23 00:35:37;;;;;;;4.20;1.10;;;;;;;;;;5040846;28;20106;-77
2022/12/23 00:38:03;;;;;;;5.38;1.00;;;;;;;;;;5038633;28;20025;-77
2022/12/23 00:43:14;;;;;;;1.95;0.80;;;;;;;;;;5043860;28;20040;-77
2022/12/23 00:45:40;;;;;;;3.50;1.13;;;;;;;;;;5049419;28;20045;-76
2022/12/23 00:50:52;;;;;;;4.28;0.82;;;;;;;;;;5029808;28;20056;-76
2022/12/23 00:53:18;;;;;;;6.28;1.77;;;;;;;;;;5048021;28;20025;-76
2022/12/23 00:55:46;;;;;;;4.35;1.70;;;;;;;;;;5040439;28;20045;-76
2022/12/23 00:58:12;;;;;;;3.50;1.08;;;;;;;;;;5040363;28;20024;-76
2022/12/23 01:06:08;;;;;;;4.10;1.48;;;;;;;;;;5042729;28;20595;-76
2022/12/23 01:08:34;;;;;;;6.05;1.25;;;;;;;;;;5040234;28;20108;-76
2022/12/23 01:11:07;;;;;;;4.72;1.55;;;;;;;;;;5047582;28;20082;-76
2022/12/23 01:13:33;;;;;;;6.00;2.05;;;;;;;;;;5047058;28;20064;-76
2022/12/23 01:16:03;;;;;;;4.40;1.20;;;;;;;;;;5048173;28;20056;-76
2022/12/23 01:18:29;;;;;;;5.30;1.38;;;;;;;;;;5031538;28;20128;-76
2022/12/23 01:20:55;;;;;;;4.25;1.65;;;;;;;;;;5048694;28;20116;-76
2022/12/23 01:23:21;;;;;;;5.65;1.60;;;;;;;;;;5046676;28;20040;-76
2022/12/23 01:25:55;;;;;;;4.35;1.17;;;;;;;;;;5047777;28;20037;-76
2022/12/23 01:28:21;;;;;;;4.03;1.48;;;;;;;;;;5037276;28;20033;-76
2022/12/23 01:30:47;;;;;;;6.68;2.42;;;;;;;;;;5048091;28;20035;-76
2022/12/23 01:33:13;;;;;;;5.90;1.85;;;;;;;;;;5045083;28;20481;-76
2022/12/23 01:35:39;;;;;;;4.35;1.30;;;;;;;;;;5034572;28;20042;-76
2022/12/23 01:38:05;;;;;;;7.00;1.80;;;;;;;;;;5038005;28;20456;-76
2022/12/23 01:40:35;;;;;;;5.15;1.70;;;;;;;;;;5044582;28;20036;-76
2022/12/23 01:43:01;;;;;;;3.20;1.10;;;;;;;;;;5047458;28;20064;-76
2022/12/23 01:45:28;;;;;;;3.85;1.60;;;;;;;;;;5047503;28;20068;-76
2022/12/23 01:47:53;;;;;;;6.72;2.63;;;;;;;;;;5044707;28;20069;-76
2022/12/23 01:50:25;;;;;;;5.30;2.00;;;;;;;;;;5046754;28;21004;-76
2022/12/23 01:53:00;;;;;;;5.15;1.23;;;;;;;;;;5047765;28;20411;-77
2022/12/23 01:55:28;;;;;;;5.90;1.40;;;;;;;;;;5040097;28;20085;-76
2022/12/23 01:57:56;;;;;;;5.10;2.40;;;;;;;;;;5045482;28;20112;-76
2022/12/23 02:05:52;;;;;;;8.52;1.40;;;;;;;;;;5044689;28;20040;-76
2022/12/23 02:11:20;;;;;;;4.15;1.38;;;;;;;;;;5048235;28;20699;-76
2022/12/23 02:16:39;;;;;;;2.85;1.02;;;;;;;;;;5044508;28;20488;-76
2022/12/23 02:19:08;;;;;;;3.00;1.27;;;;;;;;;;5050686;28;20142;-77
2022/12/23 02:21:57;;;;;;;6.15;2.08;;;;;;;;;;5047873;28;20124;-76
2022/12/23 02:24:46;;;;;;;5.30;1.75;;;;;;;;;;5038648;28;20048;-76
2022/12/23 02:27:18;;;;;;;3.88;1.20;;;;;;;;;;5048148;28;20025;-76
2022/12/23 02:30:03;;;;;;;5.93;1.10;;;;;;;;;;5050867;28;20087;-76
2022/12/23 02:32:39;;;;;;;6.28;1.90;;;;;;;;;;5051397;28;20381;-77
2022/12/23 02:35:17;;;;;;;6.40;1.58;;;;;;;;;;5051174;28;20032;-76
2022/12/23 02:37:53;;;;;;;4.15;1.75;;;;;;;;;;5051326;28;20387;-76
2022/12/23 02:40:38;;;;;;;6.28;1.98;;;;;;;;;;5041609;28;20479;-77
2022/12/23 02:43:15;;;;;;;5.72;2.17;;;;;;;;;;5042751;28;20486;-76
2022/12/23 02:45:45;;;;;;;6.32;2.40;;;;;;;;;;5044571;28;20033;-76
2022/12/23 02:48:13;;;;;;;4.05;1.80;;;;;;;;;;5051670;28;20033;-76
2022/12/23 02:50:41;;;;;;;6.78;2.42;;;;;;;;;;5048406;28;20040;-76
2022/12/23 02:53:11;;;;;;;4.45;1.70;;;;;;;;;;5051533;28;20847;-77
2022/12/23 02:55:38;;;;;;;4.18;1.58;;;;;;;;;;5044621;28;20116;-77
2022/12/23 02:58:07;;;;;;;5.50;1.33;;;;;;;;;;5049400;28;20115;-76
2022/12/23 03:00:35;;;;;;;2.70;0.90;;;;;;;;;;5050775;28;20033;-76
2022/12/23 03:03:01;;;;;;;5.63;1.25;;;;;;;;;;5046293;28;20108;-76
2022/12/23 03:05:28;;;;;;;4.05;1.60;;;;;;;;;;5041479;28;20121;-76
2022/12/23 03:07:58;;;;;;;9.10;2.08;;;;;;;;;;5050520;28;20079;-76
2022/12/23 03:10:24;;;;;;;6.72;2.30;;;;;;;;;;5048042;28;20099;-76
2022/12/23 03:13:08;;;;;;;3.72;2.13;;;;;;;;;;5043930;28;20061;-77
2022/12/23 03:15:53;;;;;;;3.97;2.17;;;;;;;;;;5043280;28;20135;-76
2022/12/23 03:18:34;;;;;;;7.80;1.92;;;;;;;;;;5040142;28;20186;-76
2022/12/23 03:21:06;;;;;;;3.40;1.27;;;;;;;;;;5046213;28;20029;-76
2022/12/23 03:23:34;;;;;;;2.63;0.90;;;;;;;;;;5048403;28;20029;-76
2022/12/23 03:26:00;;;;;;;3.85;1.55;;;;;;;;;;5047387;28;20037;-76
2022/12/23 03:28:35;;;;;;;3.45;1.83;;;;;;;;;;5038314;28;20056;-76
2022/12/23 03:31:03;;;;;;;5.78;2.38;;;;;;;;;;5049999;28;20040;-76
2022/12/23 03:33:35;;;;;;;7.00;3.55;;;;;;;;;;5031751;28;20067;-77
2022/12/23 03:36:01;;;;;;;;;;;;;;;;;;5038791;28;20037;-76
2022/12/23 03:38:28;;;;;;;8.80;3.42;;;;;;;;;;5049432;28;20669;-76
2022/12/23 03:40:55;;;;;;;5.57;2.53;;;;;;;;;;5041246;28;20036;-76
2022/12/23 03:43:32;;;;;;;5.10;2.55;;;;;;;;;;5039908;28;20078;-76
2022/12/23 03:45:59;;;;;;;5.88;2.70;;;;;;;;;;5049222;28;20041;-76
2022/12/23 03:48:48;;;;;;;5.18;2.40;;;;;;;;;;5040788;28;20032;-76
2022/12/23 03:51:16;;;;;;;4.53;1.52;;;;;;;;;;5040704;28;20424;-76
2022/12/23 03:53:44;;;;;;;5.53;1.55;;;;;;;;;;5039569;28;20037;-76
2022/12/23 03:56:14;;;;;;;6.38;2.55;;;;;;;;;;5047007;28;20041;-76
2022/12/23 03:58:43;;;;;;;6.65;2.10;;;;;;;;;;5036627;28;20036;-76
2022/12/23 04:01:09;;;;;;;5.07;2.75;;;;;;;;;;5047455;28;20045;-76
2022/12/23 04:03:39;;;;;;;5.13;2.65;;;;;;;;;;5048496;28;20024;-76
2022/12/23 04:06:09;;;;;;;8.50;4.50;;;;;;;;;;5040044;28;20041;-76
2022/12/23 04:08:36;;;;;;;10.45;6.18;;;;;;;;;;5045348;28;20099;-76
2022/12/23 04:11:03;;;;;;;8.02;3.70;;;;;;;;;;5040903;28;20084;-76
2022/12/23 04:13:29;;;;;;;5.72;2.80;;;;;;;;;;5039850;28;20037;-76
2022/12/23 04:15:59;;;;;;;4.35;1.40;;;;;;;;;;5046527;28;20069;-76
2022/12/23 04:18:25;;;;;;;3.78;1.30;;;;;;;;;;5041783;28;20028;-76
2022/12/23 04:20:51;;;;;;;3.10;1.50;;;;;;;;;;5041807;28;20605;-76
2022/12/23 04:23:17;;;;;;;13.02;5.82;;;;;;;;;;5039734;28;20099;-77
2022/12/23 04:25:43;;;;;;;8.23;4.20;;;;;;;;;;5032908;28;20829;-76
2022/12/23 04:28:09;;;;;;;13.23;6.25;;;;;;;;;;5035679;28;20041;-76
2022/12/23 04:30:35;;;;;;;9.73;3.85;;;;;;;;;;5044205;28;20044;-76
2022/12/23 04:33:01;;;;;;;5.80;2.70;;;;;;;;;;5046967;28;20033;-76
2022/12/23 04:35:27;;;;;;;6.75;2.78;;;;;;;;;;5037778;28;20044;-76
2022/12/23 04:37:53;;;;;;;7.68;2.70;;;;;;;;;;5048507;28;20135;-76
2022/12/23 04:40:19;;;;;;;5.47;2.80;;;;;;;;;;5038204;28;20412;-76
2022/12/23 04:42:45;;;;;;;9.10;2.88;;;;;;;;;;5039836;28;20031;-76
2022/12/23 04:45:11;;;;;;;3.95;2.15;;;;;;;;;;5045095;28;20037;-76
2022/12/23 04:47:37;;;;;;;5.88;1.90;;;;;;;;;;5042657;28;20057;-76
2022/12/23 04:50:03;;;;;;;6.20;3.58;;;;;;;;;;5047575;28;20679;-76
2022/12/23 04:52:29;;;;;;;3.70;1.83;;;;;;;;;;5038601;28;20570;-76
2022/12/23 04:54:55;;;;;;;3.97;1.48;;;;;;;;;;5042390;28;20043;-77
2022/12/23 04:57:21;;;;;;;6.78;3.25;;;;;;;;;;5037801;28;20113;-76
2022/12/23 04:59:47;;;;;;;7.32;3.25;;;;;;;;;;5040644;28;20049;-77
2022/12/23 05:02:13;;;;;;;9.32;3.58;;;;;;;;;;5036658;28;20099;-76
2022/12/23 05:04:39;;;;;;;6.95;3.13;;;;;;;;;;5046700;28;20037;-76
2022/12/23 05:07:05;;;;;;;9.20;3.78;;;;;;;;;;5047200;28;20025;-76
2022/12/23 05:09:31;;;;;;;6.60;2.92;;;;;;;;;;5047647;28;20537;-76
2022/12/23 05:11:57;;;;;;;5.38;2.35;;;;;;;;;;5047671;28;20104;-76
2022/12/23 05:14:23;;;;;;;9.43;3.65;;;;;;;;;;5043875;28;20072;-76
2022/12/23 05:16:49;;;;;;;8.63;4.05;;;;;;;;;;5044159;28;20377;-76
2022/12/23 05:19:15;;;;;;;5.97;3.13;;;;;;;;;;5046220;28;20053;-76
2022/12/23 05:21:41;;;;;;;5.65;2.80;;;;;;;;;;5047249;28;20124;-76
2022/12/23 05:24:07;;;;;;;10.45;4.65;;;;;;;;;;5046740;28;20032;-76
2022/12/23 05:26:33;;;;;;;7.68;4.35;;;;;;;;;;5040430;28;20052;-76
2022/12/23 05:28:59;;;;;;;6.57;3.42;;;;;;;;;;5042511;28;20464;-77
2022/12/23 05:31:25;;;;;;;5.82;3.10;;;;;;;;;;5043885;28;20065;-76
2022/12/23 05:33:51;;;;;;;8.35;3.83;;;;;;;;;;5047790;28;20543;-76
2022/12/23 05:36:17;;;;;;;5.13;2.72;;;;;;;;;;5046484;28;20580;-77
2022/12/23 05:38:43;;;;;;;6.65;3.47;;;;;;;;;;5041198;28;20029;-77
2022/12/23 05:41:09;;;;;;;7.22;3.22;;;;;;;;;;5047401;28;20207;-76
2022/12/23 05:43:35;;;;;;;6.32;2.63;;;;;;;;;;5042630;28;20033;-76
2022/12/23 05:46:01;;;;;;;7.88;3.05;;;;;;;;;;5047361;28;20048;-76
2022/12/23 05:48:27;;;;;;;9.48;4.75;;;;;;;;;;5039634;28;20821;-76
2022/12/23 05:50:53;;;;;;;15.20;10.07;;;;;;;;;;5039734;28;20804;-76
2022/12/23 05:53:20;;;;;;;13.88;8.55;;;;;;;;;;5040748;28;20317;-76
2022/12/23 05:55:46;;;;;;;9.38;5.53;;;;;;;;;;5041870;28;20044;-76
2022/12/23 05:58:12;;;;;;;6.43;3.55;;;;;;;;;;5047907;28;20095;-76
2022/12/23 06:00:38;;;;;;;3.67;1.48;;;;;;;;;;5043848;28;20035;-76
2022/12/23 06:03:04;;;;;;;1.95;0.90;;;;;;;;;;5047443;28;20029;-76
2022/12/23 06:05:30;;;;;;;9.68;2.95;;;;;;;;;;5038820;28;20044;-76
2022/12/23 06:07:56;;;;;;;21.50;12.15;;;;;;;;;;5047354;28;20041;-77
2022/12/23 06:10:22;;;;;;;11.73;7.65;;;;;;;;;;5047415;28;20076;-76
2022/12/23 06:12:48;;;;;;;16.83;12.80;;;;;;;;;;5032550;28;20032;-76
2022/12/23 06:15:14;;;;;;;17.55;12.40;;;;;;;;;;5046736;28;20075;-76
2022/12/23 06:17:40;;;;;;;17.23;12.13;;;;;;;;;;5036173;28;20037;-77
2022/12/23 06:20:06;;;;;;;27.13;21.90;;;;;;;;;;5042204;28;20032;-76
2022/12/23 06:22:32;;;;;;;22.98;18.52;;;;;;;;;;5038058;28;20103;-77
2022/12/23 06:24:58;;;;;;;35.38;27.45;;;;;;;;;;5043109;28;20377;-76
2022/12/23 06:27:24;;;;;;;90.57;70.65;;;;;;;;;;5044586;28;20037;-76
2022/12/23 06:29:50;;;;;;;32.92;24.83;;;;;;;;;;5045286;28;20041;-76
2022/12/23 06:32:16;;;;;;;18.90;12.70;;;;;;;;;;5044781;28;20106;-76
2022/12/23 06:34:42;;;;;;;17.27;12.05;;;;;;;;;;5046186;28;20064;-77
2022/12/23 06:37:08;;;;;;;19.30;12.13;;;;;;;;;;5043869;28;21908;-76
2022/12/23 06:39:34;;;;;;;6.00;2.15;;;;;;;;;;5042597;28;20029;-77
2022/12/23 06:42:00;;;;;;;11.52;5.28;;;;;;;;;;5044982;28;20033;-76
2022/12/23 06:44:26;;;;;;;19.38;14.60;;;;;;;;;;5047334;28;20025;-76
2022/12/23 06:46:52;;;;;;;20.23;14.95;;;;;;;;;;5040925;28;20037;-76
2022/12/23 06:49:18;;;;;;;16.20;9.25;;;;;;;;;;5039437;28;20681;-76
2022/12/23 06:51:44;;;;;;;13.02;9.00;;;;;;;;;;5036409;28;20052;-76
2022/12/23 06:54:11;;;;;;;9.88;7.15;;;;;;;;;;5040798;28;20545;-76
2022/12/23 06:56:37;;;;;;;4.80;3.22;;;;;;;;;;5040400;28;20079;-76
2022/12/23 06:59:03;;;;;;;4.57;1.67;;;;;;;;;;5045116;28;20437;-76
2022/12/23 07:01:29;;;;;;;14.90;8.35;;;;;;;;;;5046154;28;20663;-76
2022/12/23 07:03:56;;;;;;;19.13;11.80;;;;;;;;;;5045226;28;20110;-76
2022/12/23 07:06:22;;;;;;;15.50;12.32;;;;;;;;;;5045860;28;20044;-76
2022/12/23 07:08:48;;;;;;;18.40;12.65;;;;;;;;;;5045159;28;20044;-76
2022/12/23 07:11:14;;;;;;;11.73;8.18;;;;;;;;;;5043702;28;20052;-76
2022/12/23 07:13:40;;;;;;;13.82;10.95;;;;;;;;;;5046605;28;20038;-76
2022/12/23 07:16:07;;;;;;;23.85;17.75;;;;;;;;;;5046066;28;20115;-76
2022/12/23 07:18:33;;;;;;;15.80;11.77;;;;;;;;;;5043154;28;20730;-76
2022/12/23 07:21:00;;;;;;;13.93;10.55;;;;;;;;;;5046821;28;20103;-76
2022/12/23 07:23:26;;;;;;;5.25;3.30;;;;;;;;;;5047739;28;20048;-75
2022/12/23 07:25:52;;;;;;;7.28;3.60;;;;;;;;;;5047461;28;20044;-76
2022/12/23 07:28:18;;;;;;;11.95;6.68;;;;;;;;;;5049849;28;20043;-76
2022/12/23 07:30:44;;;;;;;13.57;10.13;;;;;;;;;;5048958;28;20033;-76
2022/12/23 07:33:10;;;;;;;11.50;8.73;;;;;;;;;;5049210;28;20033;-76
2022/12/23 07:35:36;;;;;;;19.73;13.95;;;;;;;;;;5045524;28;20507;-76
2022/12/23 07:38:02;;;;;;;29.77;21.38;;;;;;;;;;5048922;28;20029;-76
2022/12/23 07:40:28;;;;;;;26.23;16.13;;;;;;;;;;5046848;28;20029;-76
2022/12/23 07:42:58;;;;;;;23.80;16.52;;;;;;;;;;5047289;28;20372;-76
2022/12/23 07:45:24;;;;;;;20.35;13.48;;;;;;;;;;5046336;28;20037;-76
2022/12/23 07:47:54;;;;;;;23.17;15.35;;;;;;;;;;5047426;28;20115;-76
2022/12/23 07:50:21;;;;;;;15.43;11.88;;;;;;;;;;5049821;28;20100;-76
2022/12/23 07:52:47;;;;;;;25.23;13.82;;;;;;;;;;5046011;28;20029;-76
2022/12/23 07:55:13;;;;;;;21.23;14.98;;;;;;;;;;5027946;28;20029;-77
2022/12/23 07:57:39;;;;;;;27.92;19.55;;;;;;;;;;5046571;28;20044;-75
2022/12/23 08:00:06;;;;;;;23.90;15.77;;;;;;;;;;5047356;28;20108;-74
2022/12/23 08:02:32;;;;;;;11.63;9.38;;;;;;;;;;5046932;28;20036;-74
2022/12/23 08:04:58;;;;;;;20.35;12.75;;;;;;;;;;5047441;28;20112;-74
2022/12/23 08:07:24;;;;;;;13.38;9.75;;;;;;;;;;5044946;28;20167;-75
2022/12/23 08:09:50;;;;;;;10.15;3.45;;;;;;;;;;5048023;28;20045;-75
2022/12/23 08:12:16;;;;;;;9.40;6.70;;;;;;;;;;5049893;28;20049;-75
2022/12/23 08:14:43;;;;;;;9.40;4.60;;;;;;;;;;5040046;28;20155;-75
2022/12/23 08:17:09;;;;;;;16.30;8.50;;;;;;;;;;5047388;28;20071;-75
2022/12/23 08:19:35;;;;;;;15.80;10.88;;;;;;;;;;5046371;28;20158;-75
2022/12/23 08:22:01;;;;;;;16.92;11.68;;;;;;;;;;5040923;28;20033;-75
2022/12/23 08:24:27;;;;;;;10.55;7.40;;;;;;;;;;5046167;28;20151;-75
2022/12/23 08:26:53;;;;;;;11.90;7.82;;;;;;;;;;5048546;28;20103;-74
2022/12/23 08:29:19;;;;;;;8.90;4.05;;;;;;;;;;5046609;28;20079;-75
2022/12/23 08:31:46;;;;;;;5.22;2.90;;;;;;;;;;5043514;28;20068;-75
2022/12/23 08:34:13;;;;;;;4.15;1.95;;;;;;;;;;5043438;28;20078;-75
2022/12/23 08:36:39;;;;;;;6.43;3.20;;;;;;;;;;5046417;28;20056;-74
2022/12/23 08:39:07;;;;;;;140.95;41.47;;;;;;;;;;5047121;28;20060;-75
2022/12/23 08:41:35;;;;;;;59.05;19.55;;;;;;;;;;5039476;28;21236;-75
2022/12/23 08:44:01;;;;;;;15.38;8.05;;;;;;;;;;5046572;28;20024;-76
2022/12/23 08:46:28;;;;;;;5.55;2.13;;;;;;;;;;5045985;28;20102;-75
2022/12/23 08:48:54;;;;;;;8.30;3.90;;;;;;;;;;5041715;28;20041;-75
2022/12/23 08:51:21;;;;;;;8.95;4.80;;;;;;;;;;5042609;28;20082;-75
2022/12/23 08:53:47;;;;;;;6.03;2.60;;;;;;;;;;5040997;28;20133;-75
2022/12/23 08:56:14;;;;;;;7.30;2.78;;;;;;;;;;5044001;28;20052;-75
2022/12/23 08:58:42;;;;;;;6.00;1.95;;;;;;;;;;5037506;28;20026;-75
2022/12/23 09:01:09;;;;;;;8.55;3.90;;;;;;;;;;5041930;28;20179;-75
2022/12/23 09:03:35;;;;;;;16.60;10.57;;;;;;;;;;5031239;28;20025;-74
2022/12/23 09:06:09;;;;;;;18.55;13.38;;;;;;;;;;5038821;28;20045;-75
2022/12/23 09:08:35;;;;;;;19.20;10.05;;;;;;;;;;5044839;28;20438;-75
2022/12/23 09:11:01;;;;;;;18.60;12.15;;;;;;;;;;5042481;28;20140;-75
2022/12/23 09:13:27;;;;;;;17.58;13.27;;;;;;;;;;5045511;28;20108;-75
2022/12/23 09:15:53;;;;;;;17.92;12.55;;;;;;;;;;5036372;28;20045;-75
2022/12/23 09:18:19;;;;;;;15.85;12.52;;;;;;;;;;5041457;28;20025;-75
2022/12/23 09:20:45;;;;;;;13.48;9.55;;;;;;;;;;5040147;28;20407;-75
2022/12/23 09:23:11;;;;;;;11.02;8.60;;;;;;;;;;5044798;28;20020;-75
2022/12/23 09:25:37;;;;;;;13.10;10.07;;;;;;;;;;5041306;28;20060;-75
2022/12/23 09:28:03;;;;;;;14.70;10.00;;;;;;;;;;5045374;28;20055;-74
2022/12/23 09:30:29;;;;;;;14.25;11.77;;;;;;;;;;5040389;28;20034;-74
2022/12/23 09:32:55;;;;;;;14.43;10.77;;;;;;;;;;5042709;28;20040;-74
2022/12/23 09:35:21;;;;;;;19.70;12.55;;;;;;;;;;5040035;28;20507;-75
2022/12/23 09:37:47;;;;;;;15.40;10.63;;;;;;;;;;5046587;28;20016;-75
2022/12/23 09:40:14;;;;;;;7.38;3.85;;;;;;;;;;5042843;28;20484;-74
2022/12/23 09:42:49;;;;;;;11.40;6.20;;;;;;;;;;5044652;28;20030;-75
2022/12/23 09:45:35;;;;;;;7.38;3.17;;;;;;;;;;5038990;28;20028;-75
2022/12/23 09:48:03;;;;;;;7.28;4.90;;;;;;;;;;5029192;28;20855;-75
2022/12/23 09:50:30;;;;;;;15.23;9.73;;;;;;;;;;5044262;28;20033;-75
2022/12/23 09:53:07;;;;;;;17.55;14.07;;;;;;;;;;5043186;28;20021;-74
2022/12/23 09:55:39;;;;;;;8.57;5.30;;;;;;;;;;5046110;28;20364;-75
2022/12/23 09:58:09;;;;;;;7.93;2.53;;;;;;;;;;5045866;28;20092;-75
2022/12/23 10:00:38;;;;;;;4.22;1.73;;;;;;;;;;5041550;28;20041;-75
2022/12/23 10:03:14;;;;;;;8.20;3.53;;;;;;;;;;5042877;28;20021;-75
2022/12/23 10:05:49;;;;;;;7.35;2.97;;;;;;;;;;5040520;28;20038;-74
2022/12/23 10:08:35;;;;;;;7.20;4.18;;;;;;;;;;5037653;28;20033;-75
2022/12/23 10:11:07;;;;;;;23.33;17.77;;;;;;;;;;5043124;28;20187;-75
2022/12/23 10:13:36;;;;;;;20.08;16.10;;;;;;;;;;5044243;28;20080;-75
2022/12/23 10:16:12;;;;;;;22.13;12.48;;;;;;;;;;5043609;28;20041;-75
2022/12/23 10:18:41;;;;;;;3.83;1.25;;;;;;;;;;5042411;28;20036;-75
2022/12/23 10:21:11;;;;;;;3.47;0.95;;;;;;;;;;5042444;28;20032;-75
2022/12/23 10:23:38;;;;;;;2.95;0.80;;;;;;;;;;5045104;28;20090;-75
2022/12/23 10:26:11;;;;;;;5.60;1.52;;;;;;;;;;5041533;28;20033;-75
2022/12/23 10:28:37;;;;;;;5.10;1.50;;;;;;;;;;5037437;28;20036;-75
2022/12/23 10:31:05;;;;;;;6.53;2.17;;;;;;;;;;5042136;28;20037;-75
2022/12/23 10:33:45;;;;;;;12.90;4.20;;;;;;;;;;5044369;28;20044;-75
2022/12/23 10:36:23;;;;;;;13.05;8.30;;;;;;;;;;5049004;28;20041;-75
2022/12/23 10:38:51;;;;;;;13.95;9.15;;;;;;;;;;5044427;28;20025;-76
2022/12/23 10:41:26;;;;;;;11.43;5.35;;;;;;;;;;5047192;28;20029;-75
2022/12/23 10:43:58;;;;;;;8.55;3.88;;;;;;;;;;5045531;28;20025;-75
2022/12/23 10:46:27;;;;;;;12.70;6.45;;;;;;;;;;5043770;28;20049;-75
2022/12/23 10:49:04;;;;;;;6.95;3.60;;;;;;;;;;5043410;28;20029;-75
2022/12/23 10:51:39;;;;;;;5.47;1.90;;;;;;;;;;5046497;28;20045;-75
2022/12/23 10:54:06;;;;;;;5.65;2.67;;;;;;;;;;5044123;28;20480;-75
2022/12/23 10:56:32;;;;;;;9.75;5.15;;;;;;;;;;5046049;28;20037;-75
2022/12/23 10:58:59;;;;;;;13.40;8.35;;;;;;;;;;5047291;28;20108;-74
2022/12/23 11:01:26;;;;;;;14.82;10.18;;;;;;;;;;5048168;28;20036;-74
2022/12/23 11:03:52;;;;;;;20.95;14.88;;;;;;;;;;5042690;28;20028;-74
2022/12/23 11:06:18;;;;;;;22.00;16.45;;;;;;;;;;5045483;28;20037;-75
2022/12/23 11:08:45;;;;;;;75.60;57.17;;;;;;;;;;5039873;28;20025;-75
2022/12/23 11:11:11;;;;;;;25.92;21.15;;;;;;;;;;5036907;28;20110;-75
2022/12/23 11:13:38;;;;;;;16.85;9.73;;;;;;;;;;5046399;28;20422;-75
2022/12/23 11:16:11;;;;;;;18.67;14.80;;;;;;;;;;5040836;28;20056;-76
2022/12/23 11:18:37;;;;;;;22.30;14.70;;;;;;;;;;5044452;28;20029;-75
2022/12/23 11:21:05;;;;;;;23.45;16.38;;;;;;;;;;5042912;28;20083;-75
2022/12/23 11:23:33;;;;;;;13.10;9.63;;;;;;;;;;5049724;28;20048;-75
2022/12/23 11:26:01;;;;;;;8.55;3.03;;;;;;;;;;5043060;28;20041;-75
2022/12/23 11:28:27;;;;;;;4.85;2.42;;;;;;;;;;5043534;28;20132;-75
2022/12/23 11:30:55;;;;;;;5.85;2.38;;;;;;;;;;5049199;28;20037;-75
2022/12/23 11:33:28;;;;;;;6.05;2.35;;;;;;;;;;5047408;28;20035;-75
2022/12/23 11:36:06;;;;;;;8.32;4.00;;;;;;;;;;5042260;28;20037;-75
2022/12/23 11:38:34;;;;;;;7.20;2.80;;;;;;;;;;5045543;28;20461;-74
2022/12/23 11:41:00;;;;;;;8.75;4.30;;;;;;;;;;5044773;28;20041;-75
2022/12/23 11:43:26;;;;;;;10.68;5.80;;;;;;;;;;5039208;28;20770;-75
2022/12/23 11:46:11;;;;;;;12.77;8.80;;;;;;;;;;5039671;28;20041;-75
2022/12/23 11:48:37;;;;;;;18.40;12.93;;;;;;;;;;5044288;28;20523;-75
2022/12/23 11:51:03;;;;;;;20.60;14.73;;;;;;;;;;5046702;28;20037;-74
2022/12/23 11:53:31;;;;;;;17.20;11.60;;;;;;;;;;5048252;28;20033;-76
2022/12/23 11:56:10;;;;;;;17.67;13.07;;;;;;;;;;5045643;28;20038;-75
2022/12/23 11:58:59;;;;;;;15.65;10.20;;;;;;;;;;5040628;28;20801;-76
2022/12/23 12:01:25;;;;;;;13.32;10.00;;;;;;;;;;5036189;28;20047;-75
2022/12/23 12:03:55;;;;;;;18.00;13.23;;;;;;;;;;5050089;28;20020;-75
2022/12/23 12:06:21;;;;;;;22.58;14.10;;;;;;;;;;5042932;28;20036;-76
2022/12/23 12:08:51;;;;;;;26.55;21.25;;;;;;;;;;5048434;28;20035;-75
2022/12/23 12:11:18;;;;;;;25.48;21.08;;;;;;;;;;5041191;28;20084;-75
2022/12/23 12:13:48;;;;;;;25.55;19.17;;;;;;;;;;5042732;28;20029;-76
2022/12/23 12:16:30;;;;;;;30.00;18.05;;;;;;;;;;5046704;28;20037;-75
2022/12/23 12:19:02;;;;;;;36.17;29.88;;;;;;;;;;5042670;28;20366;-75
2022/12/23 12:21:30;;;;;;;57.60;46.22;;;;;;;;;;5047189;28;20029;-74
2022/12/23 12:24:06;;;;;;;95.07;77.43;;;;;;;;;;5049263;28;20025;-75
2022/12/23 12:26:35;;;;;;;49.15;33.38;;;;;;;;;;5045481;28;20043;-75
2022/12/23 12:29:13;;;;;;;20.75;11.85;;;;;;;;;;5046308;28;20031;-76
2022/12/23 12:31:42;;;;;;;29.13;19.77;;;;;;;;;;5041890;28;20033;-75
2022/12/23 12:34:27;;;;;;;24.08;16.38;;;;;;;;;;5045876;28;20039;-75
2022/12/23 12:36:59;;;;;;;14.20;10.55;;;;;;;;;;5041664;28;20043;-75
2022/12/23 12:39:32;;;;;;;8.32;4.82;;;;;;;;;;5039537;28;20032;-75
2022/12/23 12:42:18;;;;;;;14.05;6.80;;;;;;;;;;5039701;28;20037;-75
2022/12/23 12:45:05;;;;;;;17.63;13.68;;;;;;;;;;4993635;28;20044;-74
2022/12/23 12:47:40;;;;;;;24.55;19.70;;;;;;;;;;5047956;28;20082;-75
2022/12/23 12:50:11;;;;;;;9.32;5.20;;;;;;;;;;5040701;28;20104;-75
2022/12/23 12:52:39;;;;;;;9.02;6.18;;;;;;;;;;5041705;28;20098;-76
2022/12/23 12:55:12;;;;;;;8.57;5.65;;;;;;;;;;5048102;28;20029;-76
2022/12/23 12:57:39;;;;;;;4.63;1.75;;;;;;;;;;5042356;28;20040;-75
2022/12/23 13:00:15;;;;;;;11.10;4.95;;;;;;;;;;5046848;28;20029;-75
2022/12/23 13:03:00;;;;;;;8.32;3.92;;;;;;;;;;5044655;28;20104;-75
2022/12/23 13:05:27;;;;;;;21.30;11.13;;;;;;;;;;5042335;28;20036;-75
2022/12/23 13:07:58;;;;;;;13.18;9.13;;;;;;;;;;5041240;28;20029;-75
2022/12/23 13:10:24;;;;;;;15.18;10.05;;;;;;;;;;5049415;28;20131;-75
2022/12/23 13:13:03;;;;;;;15.65;8.13;;;;;;;;;;5041771;28;20531;-75
2022/12/23 13:15:37;;;;;;;13.95;8.55;;;;;;;;;;5042806;28;20029;-75
2022/12/23 13:18:09;;;;;;;24.30;18.17;;;;;;;;;;5044240;28;20041;-75
2022/12/23 13:20:44;;;;;;;10.82;7.00;;;;;;;;;;5025426;28;20786;-75
2022/12/23 13:23:17;;;;;;;10.98;4.57;;;;;;;;;;5045990;28;20039;-76
2022/12/23 13:25:45;;;;;;;11.13;5.50;;;;;;;;;;5055132;28;20032;-76
2022/12/23 13:28:18;;;;;;;10.77;5.95;;;;;;;;;;5044213;28;20033;-76
2022/12/23 13:30:44;;;;;;;;;;;;;;;;;;5042093;28;20074;-75
2022/12/23 13:33:18;;;;;;;8.75;5.07;;;;;;;;;;5044010;28;19913;-75
2022/12/23 13:35:53;;;;;;;9.18;3.80;;;;;;;;;;5044463;28;20041;-76
2022/12/23 13:38:34;;;;;;;8.18;3.63;;;;;;;;;;5044309;28;20056;-75
2022/12/23 13:41:09;;;;;;;5.72;2.25;;;;;;;;;;5043537;28;20116;-75
2022/12/23 13:43:45;;;;;;;8.88;3.90;;;;;;;;;;5042008;28;20063;-75
2022/12/23 13:46:21;;;;;;;7.95;3.60;;;;;;;;;;5040814;28;20033;-75
2022/12/23 13:48:51;;;;;;;8.30;3.10;;;;;;;;;;5032931;28;20028;-75
2022/12/23 13:51:25;;;;;;;7.57;4.00;;;;;;;;;;5046036;28;20041;-75
2022/12/23 13:53:51;;;;;;;6.53;3.53;;;;;;;;;;5045183;28;20033;-75
2022/12/23 13:56:17;;;;;;;5.35;2.47;;;;;;;;;;5037914;28;20502;-75
2022/12/23 13:58:46;;;;;;;6.45;3.15;;;;;;;;;;5039810;28;20025;-76
2022/12/23 14:01:12;;;;;;;4.88;2.22;;;;;;;;;;5044613;28;20051;-75
2022/12/23 14:03:39;;;;;;;7.63;2.97;;;;;;;;;;5042364;28;20384;-75
2022/12/23 14:06:31;;;;;;;7.45;4.15;;;;;;;;;;5044873;28;20060;-75
2022/12/23 14:08:57;;;;;;;8.18;4.65;;;;;;;;;;5012085;28;20506;-76
2022/12/23 14:11:23;;;;;;;13.85;8.75;;;;;;;;;;5047103;28;20072;-75
2022/12/23 14:13:49;;;;;;;13.98;9.23;;;;;;;;;;5048418;28;20072;-75
2022/12/23 14:16:24;;;;;;;14.35;9.70;;;;;;;;;;5047669;28;20044;-75
2022/12/23 14:18:59;;;;;;;14.35;9.68;;;;;;;;;;5048187;28;20033;-75
2022/12/23 14:21:37;;;;;;;17.48;10.18;;;;;;;;;;5038975;28;20111;-75
2022/12/23 14:24:09;;;;;;;16.55;10.10;;;;;;;;;;5046473;28;20033;-76
2022/12/23 14:26:35;;;;;;;;;;;;;;;;;;5046718;28;20048;-74
2022/12/23 14:29:10;;;;;;;5.45;2.70;;;;;;;;;;5045608;28;19908;-76
2022/12/23 14:31:41;;;;;;;9.70;6.47;;;;;;;;;;5042987;28;20136;-75
2022/12/23 14:34:27;;;;;;;12.02;6.10;;;;;;;;;;5039002;28;20104;-75
2022/12/23 14:37:12;;;;;;;7.00;4.10;;;;;;;;;;5045805;28;20430;-75
2022/12/23 14:39:38;;;;;;;8.40;2.85;;;;;;;;;;5046073;28;20029;-75
2022/12/23 14:42:04;;;;;;;10.55;3.20;;;;;;;;;;5044221;28;20025;-76
2022/12/23 14:44:36;;;;;;;4.18;2.20;;;;;;;;;;5045526;28;20036;-75
2022/12/23 14:47:03;;;;;;;5.63;2.17;;;;;;;;;;5047204;28;20036;-76
2022/12/23 14:49:34;;;;;;;8.50;3.67;;;;;;;;;;5030739;28;20488;-76
2022/12/23 14:52:19;;;;;;;15.23;9.57;;;;;;;;;;5044468;28;20747;-76
2022/12/23 14:54:45;;;;;;;6.43;3.10;;;;;;;;;;5039940;28;20059;-75
2022/12/23 14:57:18;;;;;;;9.23;5.80;;;;;;;;;;5046161;28;20032;-75
2022/12/23 14:59:52;;;;;;;9.27;7.18;;;;;;;;;;5038191;28;20037;-75
2022/12/23 15:02:25;;;;;;;7.35;3.97;;;;;;;;;;5040030;28;20074;-75
2022/12/23 15:04:55;;;;;;;13.27;7.28;;;;;;;;;;5046356;28;20037;-75
2022/12/23 15:07:24;;;;;;;11.95;4.55;;;;;;;;;;5042716;28;20128;-75
2022/12/23 15:09:53;;;;;;;19.85;13.23;;;;;;;;;;5045775;28;20053;-76
2022/12/23 15:12:25;;;;;;;10.75;4.05;;;;;;;;;;5043903;28;20033;-76
2022/12/23 15:14:51;;;;;;;;;;;;;;;;;;5042712;28;20124;-76